createdAt,value
2023-01-29T02:18:00.633Z,21.88
2023-01-29T02:20:31.896Z,13.15
2023-01-29T02:23:10.518Z,12.20
2023-01-29T02:25:45.949Z,13.38
2023-01-29T02:28:37.367Z,13.35
2023-01-29T02:31:16.809Z,13.25
2023-01-29T02:34:08.689Z,14.05
2023-01-29T02:36:50.502Z,11.88
2023-01-29T02:39:34.107Z,16.27
2023-01-29T02:42:27.254Z,19.92
2023-01-29T02:45:20.005Z,11.98
2023-01-29T02:47:59.134Z,14.52
2023-01-29T02:50:28.289Z,14.38
2023-01-29T02:53:15.621Z,15.75
2023-01-29T02:55:53.210Z,12.95
2023-01-29T02:58:22.657Z,11.32
2023-01-29T03:00:49.483Z,16.55
2023-01-29T03:03:24.972Z,15.90
2023-01-29T03:06:28.267Z,13.32
2023-01-29T03:09:04.586Z,11.93
2023-01-29T03:11:58.686Z,12.73
2023-01-29T03:15:03.611Z,15.25
2023-01-29T03:17:37.247Z,14.15
2023-01-29T03:20:12.300Z,14.13
2023-01-29T03:22:40.576Z,13.15
2023-01-29T03:25:29.646Z,15.15
2023-01-29T03:28:19.219Z,19.58
2023-01-29T03:31:12.228Z,12.60
2023-01-29T03:33:50.024Z,12.73
2023-01-29T03:36:45.535Z,16.58
2023-01-29T03:39:14.697Z,22.23
2023-01-29T03:42:01.733Z,15.77
2023-01-29T03:44:34.305Z,16.58
2023-01-29T03:47:18.825Z,11.25
2023-01-29T03:50:07.114Z,15.32
2023-01-29T03:53:02.713Z,13.13
2023-01-29T03:55:32.128Z,14.13
2023-01-29T03:58:15.865Z,14.25
2023-01-29T04:00:52.749Z,18.50
2023-01-29T04:03:48.806Z,12.68
2023-01-29T04:06:22.234Z,20.38
2023-01-29T04:08:58.246Z,12.77
2023-01-29T04:11:25.741Z,12.48
2023-01-29T04:13:52.642Z,13.23
2023-01-29T04:16:26.274Z,15.02
2023-01-29T04:18:54.299Z,22.52
2023-01-29T04:21:21.431Z,11.13
2023-01-29T04:23:47.993Z,15.55
2023-01-29T04:26:32.414Z,14.20
2023-01-29T04:29:30.319Z,11.70
2023-01-29T04:32:24.313Z,12.48
2023-01-29T04:35:15.613Z,22.48
2023-01-29T04:38:09.125Z,18.55
2023-01-29T04:41:01.858Z,12.68
2023-01-29T04:43:33.767Z,17.67
2023-01-29T04:46:13.183Z,16.40
2023-01-29T04:49:02.248Z,23.38
2023-01-29T04:51:56.055Z,28.85
2023-01-29T04:54:34.778Z,23.48
2023-01-29T04:57:25.551Z,27.73
2023-01-29T05:00:08.540Z,19.60
2023-01-29T05:02:40.986Z,21.02
2023-01-29T05:05:09.629Z,20.33
2023-01-29T05:07:38.474Z,17.00
2023-01-29T05:10:08.335Z,19.15
2023-01-29T05:12:38.354Z,21.67
2023-01-29T05:15:12.228Z,15.90
2023-01-29T05:17:38.906Z,31.30
2023-01-29T05:20:06.146Z,24.67
2023-01-29T05:22:32.928Z,17.77
2023-01-29T05:24:59.453Z,36.90
2023-01-29T05:27:51.165Z,21.83
2023-01-29T05:30:18.068Z,16.52
2023-01-29T05:32:44.727Z,31.02
2023-01-29T05:35:11.500Z,17.95
2023-01-29T05:37:38.397Z,21.30
2023-01-29T05:40:08.762Z,20.80
2023-01-29T05:42:35.388Z,18.27
2023-01-29T05:45:01.922Z,18.77
2023-01-29T05:47:28.455Z,28.25
2023-01-29T05:49:55.037Z,27.88
2023-01-29T05:52:21.593Z,23.92
2023-01-29T08:23:02.609Z,18.10
2023-01-29T08:25:29.694Z,19.38
2023-01-29T08:27:59.830Z,19.05
2023-01-29T08:30:28.688Z,15.90
2023-01-29T08:32:55.298Z,15.07
2023-01-29T08:35:22.061Z,12.07
2023-01-29T08:38:00.154Z,14.65
2023-01-29T08:40:28.678Z,16.08
2023-01-29T08:43:03.093Z,13.20
2023-01-29T08:45:33.233Z,19.88
2023-01-29T08:47:59.804Z,13.93
2023-01-29T08:50:26.423Z,17.08
2023-01-29T08:52:58.118Z,11.05
2023-01-29T08:55:25.109Z,17.42
2023-01-29T08:57:51.770Z,14.98
2023-01-29T09:00:18.763Z,14.38
2023-01-29T09:02:45.516Z,17.52
2023-01-29T09:05:12.193Z,21.17
2023-01-29T09:07:38.734Z,22.02
2023-01-29T09:10:05.645Z,17.17
2023-01-29T09:12:32.393Z,21.63
2023-01-29T09:14:58.934Z,16.30
2023-01-29T09:17:25.493Z,31.52
2023-01-29T09:19:53.135Z,26.63
2023-01-29T09:22:20.611Z,14.68
2023-01-29T09:24:47.273Z,12.55
2023-01-29T09:27:13.917Z,15.68
2023-01-29T09:29:40.548Z,41.47
2023-01-29T09:32:07.343Z,22.13
2023-01-29T09:34:34.548Z,16.10
2023-01-29T09:37:01.167Z,12.93
2023-01-29T09:39:27.747Z,12.60
2023-01-29T09:42:21.881Z,12.10
2023-01-29T09:45:10.782Z,10.23
2023-01-29T09:47:37.541Z,11.57
2023-01-29T09:50:13.580Z,13.02
2023-01-29T09:53:19.217Z,14.30
2023-01-29T09:55:53.839Z,20.63
2023-01-29T09:58:30.383Z,18.58
2023-01-29T10:01:18.203Z,14.18
2023-01-29T10:04:19.929Z,12.95
2023-01-29T10:07:26.465Z,13.98
2023-01-29T10:10:08.590Z,13.70
2023-01-29T10:12:37.827Z,13.70
2023-01-29T10:15:23.138Z,17.88
2023-01-29T10:18:29.957Z,19.10
2023-01-29T10:21:16.127Z,19.60
2023-01-29T10:24:04.155Z,14.48
2023-01-29T10:26:33.367Z,20.08
2023-01-29T10:29:03.061Z,15.30
2023-01-29T10:31:36.546Z,16.50
2023-01-29T10:34:21.315Z,16.92
2023-01-29T10:36:49.746Z,13.18
2023-01-29T10:39:20.953Z,11.13
2023-01-29T10:41:58.000Z,11.90
2023-01-29T10:44:27.191Z,13.68
2023-01-29T10:47:21.750Z,15.55
2023-01-29T10:50:19.587Z,12.10
2023-01-29T10:53:01.275Z,11.85
2023-01-29T10:55:49.144Z,14.50
2023-01-29T10:58:39.116Z,16.73
2023-01-29T11:01:05.638Z,10.00
2023-01-29T11:03:33.640Z,13.25
2023-01-29T11:06:19.076Z,11.13
2023-01-29T11:09:02.494Z,11.85
2023-01-29T11:11:39.473Z,8.60
2023-01-29T11:14:12.044Z,11.02
2023-01-29T11:16:44.885Z,9.73
2023-01-29T11:19:11.773Z,13.43
2023-01-29T11:22:01.325Z,10.68
2023-01-29T11:24:28.621Z,17.75
2023-01-29T11:26:58.699Z,12.23
2023-01-29T11:29:57.774Z,14.88
2023-01-29T11:32:26.003Z,10.18
2023-01-29T11:35:20.560Z,13.32
2023-01-29T11:37:47.669Z,15.23
2023-01-29T11:40:20.760Z,11.05
2023-01-29T11:42:47.533Z,12.00
2023-01-29T11:45:20.164Z,9.75
2023-01-29T11:47:52.983Z,13.00
2023-01-29T11:50:25.767Z,12.90
2023-01-29T11:52:52.740Z,16.55
2023-01-29T11:55:24.979Z,12.02
2023-01-29T11:58:34.991Z,11.32
2023-01-29T12:01:02.861Z,13.35
2023-01-29T12:03:41.347Z,17.88
2023-01-29T12:06:28.474Z,12.68
2023-01-29T12:09:01.051Z,14.00
2023-01-29T12:11:32.623Z,11.50
2023-01-29T12:14:01.425Z,12.43
2023-01-29T12:16:44.374Z,9.80
2023-01-29T12:19:16.753Z,17.33
2023-01-29T12:21:50.929Z,9.43
2023-01-29T12:24:17.866Z,15.40
2023-01-29T12:27:12.849Z,14.30
2023-01-29T12:29:45.221Z,11.30
2023-01-29T12:32:23.782Z,12.80
2023-01-29T12:34:53.223Z,11.13
2023-01-29T12:37:31.091Z,11.45
2023-01-29T12:39:57.652Z,13.50
2023-01-29T12:42:25.555Z,14.85
2023-01-29T12:45:01.567Z,13.75
2023-01-29T12:50:15.417Z,15.23
2023-01-29T12:52:53.111Z,10.20
2023-01-29T12:55:27.986Z,10.55
2023-01-29T12:58:00.302Z,11.15
2023-01-29T13:00:29.994Z,12.68
2023-01-29T13:03:08.415Z,25.67
2023-01-29T13:05:50.512Z,17.92
2023-01-29T13:08:16.981Z,14.38
2023-01-29T13:10:48.947Z,12.32
2023-01-29T13:13:31.621Z,17.95
2023-01-29T13:16:00.997Z,13.15
2023-01-29T13:18:39.628Z,11.95
2023-01-29T13:21:08.840Z,14.63
2023-01-29T13:23:40.574Z,12.38
2023-01-29T13:26:07.362Z,14.13
2023-01-29T13:28:34.191Z,17.50
2023-01-29T13:31:11.392Z,16.30
2023-01-29T13:33:40.908Z,14.43
2023-01-29T13:36:15.773Z,12.43
2023-01-29T13:38:45.075Z,13.77
2023-01-29T13:41:12.213Z,9.88
2023-01-29T13:43:41.939Z,11.98
2023-01-29T13:46:12.368Z,12.55
2023-01-29T13:48:46.861Z,11.60
2023-01-29T13:51:19.603Z,10.57
2023-01-29T13:54:05.256Z,11.60
2023-01-29T13:56:34.626Z,11.35
2023-01-29T17:59:25.153Z,10.60
2023-01-29T18:01:53.304Z,15.60
2023-01-29T18:04:20.568Z,17.42
2023-01-29T18:06:50.192Z,12.13
2023-01-29T18:09:20.348Z,8.32
2023-01-29T18:11:48.473Z,8.18
2023-01-29T18:14:15.195Z,6.93
2023-01-29T18:16:43.977Z,7.95
2023-01-29T18:19:23.092Z,8.60
2023-01-29T18:21:50.428Z,7.78
2023-01-29T18:24:17.198Z,12.75
2023-01-29T18:26:44.021Z,5.93
2023-01-29T18:29:10.621Z,6.53
2023-01-29T18:31:37.483Z,9.23
2023-01-29T18:34:04.259Z,6.53
2023-01-29T18:36:30.827Z,7.35
2023-01-29T18:38:57.859Z,7.60
2023-01-29T18:41:24.610Z,6.22
2023-01-29T18:43:52.855Z,6.32
2023-01-29T18:46:20.315Z,6.68
2023-01-29T18:48:47.135Z,5.93
2023-01-29T18:51:13.730Z,5.45
2023-01-29T18:53:40.557Z,7.25
2023-01-29T18:56:08.017Z,6.47
2023-01-29T18:58:36.781Z,5.80
2023-01-29T19:01:10.274Z,9.38
2023-01-29T19:03:37.572Z,6.28
2023-01-29T19:06:07.017Z,8.90
2023-01-29T19:08:34.436Z,8.52
2023-01-29T19:11:03.819Z,8.90
2023-01-29T19:13:31.043Z,8.82
2023-01-29T19:15:57.980Z,7.65
2023-01-29T19:18:26.315Z,5.55
2023-01-29T19:20:53.677Z,4.95
2023-01-29T19:23:21.482Z,8.82
2023-01-29T19:25:48.378Z,6.80
2023-01-29T19:28:15.383Z,6.82
2023-01-29T19:30:42.147Z,7.05
2023-01-29T19:33:10.411Z,7.97
2023-01-29T19:35:37.119Z,9.20
2023-01-29T19:38:04.555Z,8.35
2023-01-29T19:40:31.329Z,5.50
2023-01-29T19:42:58.449Z,6.20
2023-01-29T19:45:37.167Z,6.43
2023-01-29T19:48:14.425Z,7.90
2023-01-29T19:50:41.041Z,5.55
2023-01-29T19:53:07.599Z,7.70
2023-01-29T19:55:34.103Z,6.38
2023-01-29T19:58:00.694Z,6.90
2023-01-29T20:00:27.266Z,12.77
2023-01-29T20:02:53.885Z,7.32
2023-01-29T20:05:20.789Z,5.85
2023-01-29T20:07:47.582Z,6.20
2023-01-29T20:10:17.600Z,7.97
2023-01-29T20:12:45.374Z,7.22
2023-01-29T20:15:13.411Z,7.25
2023-01-29T20:17:40.611Z,6.72
2023-01-29T20:20:08.948Z,5.07
2023-01-29T20:22:35.757Z,8.82
2023-01-29T20:25:02.361Z,6.53
2023-01-29T20:27:28.939Z,6.50
2023-01-29T20:29:55.676Z,7.10
2023-01-29T20:32:22.495Z,7.47
2023-01-29T20:34:52.368Z,4.65
2023-01-29T20:37:19.581Z,6.38
2023-01-29T20:39:46.527Z,9.70
2023-01-29T20:42:13.592Z,6.53
2023-01-29T20:44:40.385Z,5.45
2023-01-29T20:47:06.975Z,7.05
2023-01-29T20:49:33.673Z,6.72
2023-01-29T20:52:00.382Z,7.53
2023-01-29T20:54:26.920Z,6.70
2023-01-29T20:56:53.799Z,5.72
2023-01-29T20:59:20.550Z,8.38
2023-01-29T21:01:47.414Z,7.05
2023-01-29T21:04:14.047Z,5.18
2023-01-29T21:06:40.567Z,6.00
2023-01-29T21:09:07.162Z,5.68
2023-01-29T21:11:33.919Z,4.80
2023-01-29T21:14:01.828Z,5.22
2023-01-29T21:16:28.891Z,5.50
2023-01-29T21:18:57.087Z,5.28
2023-01-29T21:21:24.611Z,6.72
2023-01-29T21:23:51.415Z,6.32
2023-01-29T21:26:19.105Z,7.93
2023-01-29T21:28:46.957Z,7.10
2023-01-29T21:31:14.582Z,4.50
2023-01-29T21:33:41.155Z,7.20
2023-01-29T21:36:08.502Z,5.68
2023-01-29T21:38:35.011Z,4.55
2023-01-29T21:41:04.533Z,5.68
